Aérodrome :
LOGIN :

S'inscrire | Disclaimer

   EN    FR    IT 

 










Légende :    VFR   VFR Marginal   IFR   IFR Intensif   IFR Très Intensif
Visi : 
Plafond : 
>= 8 km
>= 3000ft
5 à 8 km
1000 à 3000 ft
1500m à 5 km
500 à 1000 ft
800 à 1500m
200 à 500 ft
< 800m
< 200 ft
Symboles :   Orages  Brouillard  Fortes neiges  Fortes précipitations  Vent > 20 kt
SIGMETs :   Divers  Orages  Givrage  Turbulence  Onde Orograph.  Cendres Volcan.






- Altitude de l'aérodrome : 122 ft
- Code IATA : TXL


EDDT - Berlin Tegel Int.

DERNIER METAR :
  • 101220Z 24003KT 170V290 9999 FEW018 FEW040CB 22/19 Q1006 RESHRA TEMPO 26015G25KT SHRA

METARs EXPIRÉS :
  • 101150Z 26004KT 240V340 9999 -SHRA VCTS FEW020 SCT040CB 23/18 Q1006 TEMPO 22012KT SHRA
  • 101120Z 19003KT 110V260 9999 FEW020 24/18 Q1006 TEMPO 22012KT SHRA
  • 101050Z 16006KT 090V200 9999 FEW020CB 23/18 Q1006 BECMG 22012KT
  • 101020Z 15007KT 120V190 9999 FEW020 23/17 Q1006 BECMG 22012KT
  • 100950Z 14006KT 090V190 9999 FEW019 22/16 Q1006 BECMG 22010KT

TAF TAF EDDT
Valide du 10 à 12h jusqu'au 11 à 12h UTC


101100Z 1012/1112 24012KT 9999 FEW030
TEMPO 1012/1017 24015G30KT
PROB30
TEMPO 1012/1017 SHRA BKN030CB
TEMPO 1017/1020 30015G30KT
PROB30
TEMPO 1017/1022 BKN012
BECMG 1019/1021 28007KT



MET'MAP, la Météo Aéronautique d'un coup d'oeil ! - Copyright ORBIFLY Décembre 2007 - Disclaimer

ORBIFLY MET'MAP TEAM :

Programmation & Développement : Alexandra Zaïnal
Sur une idée originale de : Baudouin d'Aumeries
Assistance à la programmation : Marc-Olivier Méhu
Soutien technique & logistique : Manuel Goepfert

Contact : metmap@orbifly.com




SOURCES & CREDITS :

   NOAA